sensor_id;sensor_type;location;lat;lon;timestamp;pressure;altitude;pressure_sealevel;temperature;humidity
5455;BME280;2750;49.050;9.250;2023-03-25T00:01:47;98164.59;;;10.95;93.46
5455;BME280;2750;49.050;9.250;2023-03-25T00:06:49;98162.06;;;10.64;92.81
5455;BME280;2750;49.050;9.250;2023-03-25T00:11:50;98161.63;;;10.72;93.03
5455;BME280;2750;49.050;9.250;2023-03-25T00:16:53;98162.97;;;10.93;91.73
5455;BME280;2750;49.050;9.250;2023-03-25T00:21:55;98160.06;;;11.13;90.61
5455;BME280;2750;49.050;9.250;2023-03-25T00:26:56;98171.75;;;11.20;90.39
5455;BME280;2750;49.050;9.250;2023-03-25T00:31:59;98155.72;;;11.14;89.82
5455;BME280;2750;49.050;9.250;2023-03-25T00:37:01;98165.19;;;11.29;89.31
5455;BME280;2750;49.050;9.250;2023-03-25T00:42:03;98145.31;;;10.99;89.42
5455;BME280;2750;49.050;9.250;2023-03-25T00:47:06;98145.97;;;11.17;88.92
5455;BME280;2750;49.050;9.250;2023-03-25T00:52:07;98147.75;;;11.17;88.31
5455;BME280;2750;49.050;9.250;2023-03-25T00:57:10;98146.16;;;11.42;88.23
5455;BME280;2750;49.050;9.250;2023-03-25T01:02:13;98132.16;;;11.59;87.51
5455;BME280;2750;49.050;9.250;2023-03-25T01:07:15;98147.66;;;11.32;88.59
5455;BME280;2750;49.050;9.250;2023-03-25T01:12:17;98126.13;;;11.16;88.68
5455;BME280;2750;49.050;9.250;2023-03-25T01:17:20;98131.59;;;11.54;88.40
5455;BME280;2750;49.050;9.250;2023-03-25T01:22:22;98130.88;;;11.38;88.70
5455;BME280;2750;49.050;9.250;2023-03-25T01:27:23;98126.59;;;11.51;88.54
5455;BME280;2750;49.050;9.250;2023-03-25T01:32:27;98116.19;;;11.65;87.69
5455;BME280;2750;49.050;9.250;2023-03-25T01:37:28;98115.59;;;11.76;87.71
5455;BME280;2750;49.050;9.250;2023-03-25T01:42:33;98103.59;;;12.14;85.77
5455;BME280;2750;49.050;9.250;2023-03-25T01:47:36;98109.03;;;12.24;84.66
5455;BME280;2750;49.050;9.250;2023-03-25T01:52:38;98113.97;;;11.87;86.46
5455;BME280;2750;49.050;9.250;2023-03-25T01:57:42;98101.00;;;11.59;85.74
5455;BME280;2750;49.050;9.250;2023-03-25T02:02:46;98105.47;;;11.71;85.65
5455;BME280;2750;49.050;9.250;2023-03-25T02:07:50;98091.66;;;11.97;85.18
5455;BME280;2750;49.050;9.250;2023-03-25T02:12:53;98080.34;;;11.98;84.76
5455;BME280;2750;49.050;9.250;2023-03-25T02:18:16;98072.31;;;12.28;84.08
5455;BME280;2750;49.050;9.250;2023-03-25T02:23:46;98087.09;;;12.28;84.19
5455;BME280;2750;49.050;9.250;2023-03-25T02:29:01;98098.94;;;11.50;87.73
5455;BME280;2750;49.050;9.250;2023-03-25T02:34:34;98162.28;;;11.05;91.28
5455;BME280;2750;49.050;9.250;2023-03-25T02:39:46;98156.44;;;10.11;92.28
5455;BME280;2750;49.050;9.250;2023-03-25T02:44:56;98183.03;;;9.33;93.52
5455;BME280;2750;49.050;9.250;2023-03-25T02:50:02;98173.66;;;8.80;94.80
5455;BME280;2750;49.050;9.250;2023-03-25T02:55:10;98179.38;;;8.51;97.50
5455;BME280;2750;49.050;9.250;2023-03-25T03:00:16;98145.69;;;8.16;97.77
5455;BME280;2750;49.050;9.250;2023-03-25T03:05:24;98120.66;;;8.36;96.93
5455;BME280;2750;49.050;9.250;2023-03-25T03:10:34;98099.22;;;8.51;95.56
5455;BME280;2750;49.050;9.250;2023-03-25T03:15:45;98116.44;;;8.52;95.83
5455;BME280;2750;49.050;9.250;2023-03-25T03:20:54;98120.31;;;8.60;95.19
5455;BME280;2750;49.050;9.250;2023-03-25T03:26:05;98129.91;;;8.58;95.54
5455;BME280;2750;49.050;9.250;2023-03-25T03:31:11;98123.34;;;9.03;95.36
5455;BME280;2750;49.050;9.250;2023-03-25T03:36:18;98129.66;;;8.97;94.00
5455;BME280;2750;49.050;9.250;2023-03-25T03:41:24;98144.72;;;8.89;94.67
5455;BME280;2750;49.050;9.250;2023-03-25T03:46:29;98167.63;;;9.14;94.88
5455;BME280;2750;49.050;9.250;2023-03-25T03:51:36;98167.91;;;9.25;94.03
5455;BME280;2750;49.050;9.250;2023-03-25T03:56:41;98176.91;;;9.51;93.09
5455;BME280;2750;49.050;9.250;2023-03-25T04:01:47;98180.50;;;9.48;92.42
5455;BME280;2750;49.050;9.250;2023-03-25T04:06:56;98188.91;;;9.69;92.11
5455;BME280;2750;49.050;9.250;2023-03-25T04:12:05;98196.06;;;9.31;93.39
5455;BME280;2750;49.050;9.250;2023-03-25T04:17:09;98193.00;;;9.73;91.60
5455;BME280;2750;49.050;9.250;2023-03-25T04:22:11;98191.28;;;9.56;91.69
5455;BME280;2750;49.050;9.250;2023-03-25T04:27:14;98181.44;;;9.63;91.55
5455;BME280;2750;49.050;9.250;2023-03-25T04:32:16;98186.06;;;9.74;91.07
5455;BME280;2750;49.050;9.250;2023-03-25T04:37:18;98174.88;;;9.73;90.24
5455;BME280;2750;49.050;9.250;2023-03-25T04:42:21;98181.84;;;9.55;91.35
5455;BME280;2750;49.050;9.250;2023-03-25T04:47:25;98195.22;;;9.64;92.48
5455;BME280;2750;49.050;9.250;2023-03-25T04:52:26;98181.00;;;10.03;89.47
5455;BME280;2750;49.050;9.250;2023-03-25T04:57:29;98189.81;;;10.17;88.99
5455;BME280;2750;49.050;9.250;2023-03-25T05:02:31;98185.28;;;10.36;88.26
5455;BME280;2750;49.050;9.250;2023-03-25T05:07:33;98195.41;;;10.40;87.83
5455;BME280;2750;49.050;9.250;2023-03-25T05:12:36;98198.72;;;10.58;87.63
5455;BME280;2750;49.050;9.250;2023-03-25T05:17:38;98199.06;;;10.68;87.96
5455;BME280;2750;49.050;9.250;2023-03-25T05:22:40;98183.84;;;10.91;86.82
5455;BME280;2750;49.050;9.250;2023-03-25T05:27:43;98182.75;;;10.95;86.83
5455;BME280;2750;49.050;9.250;2023-03-25T05:32:45;98187.91;;;10.66;87.47
5455;BME280;2750;49.050;9.250;2023-03-25T05:37:50;98194.38;;;10.59;88.17
5455;BME280;2750;49.050;9.250;2023-03-25T05:42:53;98200.63;;;10.70;87.72
5455;BME280;2750;49.050;9.250;2023-03-25T05:47:55;98192.84;;;10.70;87.21
5455;BME280;2750;49.050;9.250;2023-03-25T05:52:58;98200.09;;;10.49;87.77
5455;BME280;2750;49.050;9.250;2023-03-25T05:58:01;98201.25;;;10.44;88.21
5455;BME280;2750;49.050;9.250;2023-03-25T06:03:05;98211.44;;;10.63;87.04
5455;BME280;2750;49.050;9.250;2023-03-25T06:08:07;98216.94;;;10.09;87.17
5455;BME280;2750;49.050;9.250;2023-03-25T06:13:10;98230.13;;;10.53;86.86
5455;BME280;2750;49.050;9.250;2023-03-25T06:18:11;98220.97;;;10.62;85.92
5455;BME280;2750;49.050;9.250;2023-03-25T06:23:13;98231.09;;;10.82;84.76
5455;BME280;2750;49.050;9.250;2023-03-25T06:28:17;98238.16;;;10.49;84.78
5455;BME280;2750;49.050;9.250;2023-03-25T06:33:19;98229.56;;;10.94;84.16
5455;BME280;2750;49.050;9.250;2023-03-25T06:38:21;98235.53;;;11.10;84.71
5455;BME280;2750;49.050;9.250;2023-03-25T06:43:24;98231.63;;;11.47;82.03
5455;BME280;2750;49.050;9.250;2023-03-25T06:48:27;98224.19;;;11.27;81.97
5455;BME280;2750;49.050;9.250;2023-03-25T06:53:28;98227.84;;;11.67;81.68
5455;BME280;2750;49.050;9.250;2023-03-25T06:58:32;98233.88;;;11.53;81.94
5455;BME280;2750;49.050;9.250;2023-03-25T07:03:36;98233.28;;;12.06;81.21
5455;BME280;2750;49.050;9.250;2023-03-25T07:08:37;98236.44;;;12.52;78.67
5455;BME280;2750;49.050;9.250;2023-03-25T07:13:40;98227.53;;;12.42;78.86
5455;BME280;2750;49.050;9.250;2023-03-25T07:18:42;98222.91;;;12.33;79.23
5455;BME280;2750;49.050;9.250;2023-03-25T07:23:44;98234.28;;;12.04;82.53
5455;BME280;2750;49.050;9.250;2023-03-25T07:28:47;98239.28;;;12.21;82.42
5455;BME280;2750;49.050;9.250;2023-03-25T07:33:48;98235.78;;;11.93;82.44
5455;BME280;2750;49.050;9.250;2023-03-25T07:38:50;98233.41;;;12.45;79.56
5455;BME280;2750;49.050;9.250;2023-03-25T07:43:54;98237.66;;;12.73;80.76
5455;BME280;2750;49.050;9.250;2023-03-25T07:48:55;98232.16;;;12.78;79.96
5455;BME280;2750;49.050;9.250;2023-03-25T07:53:57;98226.16;;;13.17;78.38
5455;BME280;2750;49.050;9.250;2023-03-25T07:59:00;98226.31;;;13.01;78.75
5455;BME280;2750;49.050;9.250;2023-03-25T08:04:01;98209.69;;;13.16;78.66
5455;BME280;2750;49.050;9.250;2023-03-25T08:09:03;98205.53;;;13.14;79.01
5455;BME280;2750;49.050;9.250;2023-03-25T08:14:06;98200.03;;;13.44;78.84
5455;BME280;2750;49.050;9.250;2023-03-25T08:19:08;98197.84;;;13.25;78.37
5455;BME280;2750;49.050;9.250;2023-03-25T08:24:10;98206.31;;;13.02;79.42
5455;BME280;2750;49.050;9.250;2023-03-25T08:29:14;98195.09;;;13.26;78.72
5455;BME280;2750;49.050;9.250;2023-03-25T08:34:17;98197.31;;;13.70;77.09
5455;BME280;2750;49.050;9.250;2023-03-25T08:39:19;98201.09;;;14.28;75.61
5455;BME280;2750;49.050;9.250;2023-03-25T08:44:22;98206.09;;;14.67;76.35
5455;BME280;2750;49.050;9.250;2023-03-25T08:49:24;98184.25;;;14.68;74.70
5455;BME280;2750;49.050;9.250;2023-03-25T08:54:26;98182.03;;;14.51;74.94
5455;BME280;2750;49.050;9.250;2023-03-25T08:59:29;98162.50;;;14.20;75.56
5455;BME280;2750;49.050;9.250;2023-03-25T09:04:31;98150.06;;;14.24;77.70
5455;BME280;2750;49.050;9.250;2023-03-25T09:09:32;98186.38;;;13.78;80.16
5455;BME280;2750;49.050;9.250;2023-03-25T09:14:35;98214.28;;;11.62;85.70
5455;BME280;2750;49.050;9.250;2023-03-25T09:19:37;98235.16;;;11.02;91.07
5455;BME280;2750;49.050;9.250;2023-03-25T09:24:39;98213.31;;;10.45;88.79
5455;BME280;2750;49.050;9.250;2023-03-25T09:29:42;98217.78;;;10.88;90.29
5455;BME280;2750;49.050;9.250;2023-03-25T09:34:43;98213.19;;;11.66;90.13
5455;BME280;2750;49.050;9.250;2023-03-25T09:39:45;98208.47;;;12.15;88.34
5455;BME280;2750;49.050;9.250;2023-03-25T09:44:54;98207.94;;;13.42;85.14
5455;BME280;2750;49.050;9.250;2023-03-25T09:50:02;98214.44;;;13.62;82.49
5455;BME280;2750;49.050;9.250;2023-03-25T09:55:08;98211.38;;;14.78;78.46
5455;BME280;2750;49.050;9.250;2023-03-25T10:00:19;98196.94;;;14.13;78.95
5455;BME280;2750;49.050;9.250;2023-03-25T10:05:33;98213.81;;;13.83;79.43
5455;BME280;2750;49.050;9.250;2023-03-25T10:10:42;98218.88;;;12.56;83.66
5455;BME280;2750;49.050;9.250;2023-03-25T10:15:52;98240.00;;;11.52;89.76
5455;BME280;2750;49.050;9.250;2023-03-25T10:21:01;98231.31;;;12.51;90.65
5455;BME280;2750;49.050;9.250;2023-03-25T10:26:09;98228.56;;;12.66;85.73
5455;BME280;2750;49.050;9.250;2023-03-25T10:31:16;98220.69;;;13.07;83.88
5455;BME280;2750;49.050;9.250;2023-03-25T10:36:23;98220.41;;;12.31;85.57
5455;BME280;2750;49.050;9.250;2023-03-25T10:41:29;98216.75;;;12.48;88.06
5455;BME280;2750;49.050;9.250;2023-03-25T10:46:34;98224.28;;;13.19;85.30
5455;BME280;2750;49.050;9.250;2023-03-25T10:51:47;98210.75;;;13.14;85.14
5455;BME280;2750;49.050;9.250;2023-03-25T10:56:52;98206.22;;;12.76;85.49
5455;BME280;2750;49.050;9.250;2023-03-25T11:01:57;98197.44;;;13.56;84.16
5455;BME280;2750;49.050;9.250;2023-03-25T11:06:59;98186.69;;;13.48;82.14
5455;BME280;2750;49.050;9.250;2023-03-25T11:12:05;98170.28;;;14.33;79.60
5455;BME280;2750;49.050;9.250;2023-03-25T11:17:12;98182.31;;;14.23;79.11
5455;BME280;2750;49.050;9.250;2023-03-25T11:22:18;98182.69;;;13.93;79.19
5455;BME280;2750;49.050;9.250;2023-03-25T11:27:24;98146.88;;;14.44;79.07
5455;BME280;2750;49.050;9.250;2023-03-25T11:32:33;98154.34;;;14.25;77.51
5455;BME280;2750;49.050;9.250;2023-03-25T11:37:42;98129.53;;;14.43;74.46
5455;BME280;2750;49.050;9.250;2023-03-25T11:42:44;98150.75;;;14.26;76.48
5455;BME280;2750;49.050;9.250;2023-03-25T11:47:50;98108.44;;;14.46;73.81
5455;BME280;2750;49.050;9.250;2023-03-25T11:52:54;98138.81;;;13.49;74.32
5455;BME280;2750;49.050;9.250;2023-03-25T11:57:59;98140.72;;;13.47;73.62
5455;BME280;2750;49.050;9.250;2023-03-25T12:03:05;98145.88;;;13.72;72.42
5455;BME280;2750;49.050;9.250;2023-03-25T12:08:11;98124.19;;;13.84;72.99
5455;BME280;2750;49.050;9.250;2023-03-25T12:13:23;98102.84;;;14.27;72.41
5455;BME280;2750;49.050;9.250;2023-03-25T12:18:37;98101.06;;;14.04;70.28
5455;BME280;2750;49.050;9.250;2023-03-25T12:23:50;98101.91;;;14.04;68.99
5455;BME280;2750;49.050;9.250;2023-03-25T12:29:13;98118.16;;;14.44;70.77
5455;BME280;2750;49.050;9.250;2023-03-25T12:34:27;98127.31;;;13.77;71.00
5455;BME280;2750;49.050;9.250;2023-03-25T12:39:43;98160.09;;;13.30;72.89
5455;BME280;2750;49.050;9.250;2023-03-25T12:44:59;98150.28;;;12.69;76.26
5455;BME280;2750;49.050;9.250;2023-03-25T12:50:19;98178.94;;;12.02;87.32
5455;BME280;2750;49.050;9.250;2023-03-25T12:55:43;98181.53;;;13.09;85.61
5455;BME280;2750;49.050;9.250;2023-03-25T13:00:55;98151.97;;;13.10;80.45
5455;BME280;2750;49.050;9.250;2023-03-25T13:06:08;98162.00;;;13.41;78.33
5455;BME280;2750;49.050;9.250;2023-03-25T13:11:17;98156.97;;;13.38;76.93
5455;BME280;2750;49.050;9.250;2023-03-25T13:16:24;98131.44;;;13.43;77.04
5455;BME280;2750;49.050;9.250;2023-03-25T13:21:31;98147.13;;;14.28;74.12
5455;BME280;2750;49.050;9.250;2023-03-25T13:26:39;98143.38;;;14.56;75.14
5455;BME280;2750;49.050;9.250;2023-03-25T13:31:43;98110.13;;;14.93;71.86
5455;BME280;2750;49.050;9.250;2023-03-25T13:36:57;98121.44;;;14.94;69.00
5455;BME280;2750;49.050;9.250;2023-03-25T13:42:04;98118.34;;;15.00;67.72
5455;BME280;2750;49.050;9.250;2023-03-25T13:47:18;98125.47;;;14.98;65.52
5455;BME280;2750;49.050;9.250;2023-03-25T13:52:24;98137.13;;;15.05;65.86
5455;BME280;2750;49.050;9.250;2023-03-25T13:57:56;98129.50;;;14.91;64.52
5455;BME280;2750;49.050;9.250;2023-03-25T14:03:16;98129.38;;;15.49;64.84
5455;BME280;2750;49.050;9.250;2023-03-25T14:13:58;98134.75;;;15.02;64.32
5455;BME280;2750;49.050;9.250;2023-03-25T14:19:05;98153.97;;;14.06;65.17
5455;BME280;2750;49.050;9.250;2023-03-25T14:24:16;98120.28;;;15.31;67.63
5455;BME280;2750;49.050;9.250;2023-03-25T14:29:27;98149.28;;;15.28;66.00
5455;BME280;2750;49.050;9.250;2023-03-25T14:34:32;98169.47;;;15.26;65.79
5455;BME280;2750;49.050;9.250;2023-03-25T14:39:38;98163.81;;;15.32;64.57
5455;BME280;2750;49.050;9.250;2023-03-25T14:44:42;98173.72;;;15.73;63.87
5455;BME280;2750;49.050;9.250;2023-03-25T14:49:49;98164.81;;;14.49;63.97
5455;BME280;2750;49.050;9.250;2023-03-25T14:54:55;98158.47;;;14.40;65.08
5455;BME280;2750;49.050;9.250;2023-03-25T14:59:59;98171.31;;;14.67;63.84
5455;BME280;2750;49.050;9.250;2023-03-25T15:05:15;98155.13;;;14.38;63.55
5455;BME280;2750;49.050;9.250;2023-03-25T15:10:23;98153.22;;;15.45;61.94
5455;BME280;2750;49.050;9.250;2023-03-25T15:15:29;98145.31;;;15.68;60.82
5455;BME280;2750;49.050;9.250;2023-03-25T15:20:32;98123.50;;;15.46;61.45
5455;BME280;2750;49.050;9.250;2023-03-25T15:25:38;98144.56;;;15.44;61.79
5455;BME280;2750;49.050;9.250;2023-03-25T15:30:56;98143.28;;;15.94;60.65
5455;BME280;2750;49.050;9.250;2023-03-25T15:36:20;98141.53;;;16.81;59.76
5455;BME280;2750;49.050;9.250;2023-03-25T15:41:57;98133.22;;;16.96;58.76
5455;BME280;2750;49.050;9.250;2023-03-25T15:47:12;98125.44;;;16.42;57.46
5455;BME280;2750;49.050;9.250;2023-03-25T15:52:30;98105.22;;;16.33;56.72
5455;BME280;2750;49.050;9.250;2023-03-25T15:57:41;98119.69;;;16.48;56.47
5455;BME280;2750;49.050;9.250;2023-03-25T16:02:47;98115.31;;;15.95;56.80
5455;BME280;2750;49.050;9.250;2023-03-25T16:07:50;98106.28;;;15.99;56.86
5455;BME280;2750;49.050;9.250;2023-03-25T16:12:53;98121.53;;;15.60;57.24
5455;BME280;2750;49.050;9.250;2023-03-25T16:17:56;98112.72;;;15.61;57.57
5455;BME280;2750;49.050;9.250;2023-03-25T16:22:59;98104.84;;;15.28;58.69
5455;BME280;2750;49.050;9.250;2023-03-25T16:28:06;98131.03;;;16.06;57.94
5455;BME280;2750;49.050;9.250;2023-03-25T16:33:12;98142.78;;;16.54;58.84
5455;BME280;2750;49.050;9.250;2023-03-25T16:38:18;98128.75;;;16.55;57.88
5455;BME280;2750;49.050;9.250;2023-03-25T16:43:23;98146.94;;;16.03;60.44
5455;BME280;2750;49.050;9.250;2023-03-25T16:48:28;98138.09;;;15.26;63.06
5455;BME280;2750;49.050;9.250;2023-03-25T16:53:31;98152.72;;;14.48;65.33
5455;BME280;2750;49.050;9.250;2023-03-25T16:58:36;98159.69;;;14.47;66.18
5455;BME280;2750;49.050;9.250;2023-03-25T17:03:48;98160.88;;;13.94;67.25
5455;BME280;2750;49.050;9.250;2023-03-25T17:08:50;98173.00;;;13.95;67.51
5455;BME280;2750;49.050;9.250;2023-03-25T17:13:58;98172.16;;;13.95;67.08
5455;BME280;2750;49.050;9.250;2023-03-25T17:19:02;98183.00;;;13.88;67.76
5455;BME280;2750;49.050;9.250;2023-03-25T17:24:19;98185.06;;;14.09;67.20
5455;BME280;2750;49.050;9.250;2023-03-25T17:29:22;98197.28;;;13.96;67.25
5455;BME280;2750;49.050;9.250;2023-03-25T17:34:25;98190.34;;;13.83;67.87
5455;BME280;2750;49.050;9.250;2023-03-25T17:39:29;98179.78;;;13.85;67.59
5455;BME280;2750;49.050;9.250;2023-03-25T17:44:34;98177.00;;;13.63;67.83
5455;BME280;2750;49.050;9.250;2023-03-25T17:49:36;98178.88;;;13.48;68.03
5455;BME280;2750;49.050;9.250;2023-03-25T17:54:38;98188.66;;;13.32;68.43
5455;BME280;2750;49.050;9.250;2023-03-25T17:59:42;98190.84;;;13.38;67.80
5455;BME280;2750;49.050;9.250;2023-03-25T18:04:43;98201.41;;;13.36;68.38
5455;BME280;2750;49.050;9.250;2023-03-25T18:09:45;98217.34;;;13.32;68.17
5455;BME280;2750;49.050;9.250;2023-03-25T18:14:48;98224.09;;;13.34;69.10
5455;BME280;2750;49.050;9.250;2023-03-25T18:19:50;98224.34;;;13.44;69.37
5455;BME280;2750;49.050;9.250;2023-03-25T18:24:52;98220.78;;;13.45;70.03
5455;BME280;2750;49.050;9.250;2023-03-25T18:29:55;98213.91;;;13.44;69.47
5455;BME280;2750;49.050;9.250;2023-03-25T18:34:56;98211.69;;;13.38;69.94
5455;BME280;2750;49.050;9.250;2023-03-25T18:39:58;98220.34;;;13.38;70.15
5455;BME280;2750;49.050;9.250;2023-03-25T18:45:01;98221.41;;;13.36;69.56
5455;BME280;2750;49.050;9.250;2023-03-25T18:50:12;98234.44;;;13.09;70.99
5455;BME280;2750;49.050;9.250;2023-03-25T18:55:15;98256.63;;;13.41;71.17
5455;BME280;2750;49.050;9.250;2023-03-25T19:00:20;98238.06;;;13.21;71.25
5455;BME280;2750;49.050;9.250;2023-03-25T19:05:24;98248.19;;;12.99;72.33
5455;BME280;2750;49.050;9.250;2023-03-25T19:10:27;98275.06;;;13.26;72.52
5455;BME280;2750;49.050;9.250;2023-03-25T19:15:30;98273.94;;;13.30;70.57
5455;BME280;2750;49.050;9.250;2023-03-25T19:20:34;98272.13;;;13.18;71.85
5455;BME280;2750;49.050;9.250;2023-03-25T19:25:36;98272.75;;;13.21;71.32
5455;BME280;2750;49.050;9.250;2023-03-25T19:30:41;98286.94;;;13.03;70.97
5455;BME280;2750;49.050;9.250;2023-03-25T19:35:48;98296.56;;;12.48;73.17
5455;BME280;2750;49.050;9.250;2023-03-25T19:40:52;98303.94;;;12.41;73.14
5455;BME280;2750;49.050;9.250;2023-03-25T19:46:02;98310.91;;;12.40;73.80
5455;BME280;2750;49.050;9.250;2023-03-25T19:51:04;98290.22;;;12.11;73.95
5455;BME280;2750;49.050;9.250;2023-03-25T19:56:07;98306.16;;;12.33;74.80
5455;BME280;2750;49.050;9.250;2023-03-25T20:01:14;98310.19;;;12.79;74.40
5455;BME280;2750;49.050;9.250;2023-03-25T20:06:16;98299.25;;;12.46;75.25
5455;BME280;2750;49.050;9.250;2023-03-25T20:11:17;98298.53;;;12.16;76.25
5455;BME280;2750;49.050;9.250;2023-03-25T20:16:20;98303.84;;;12.28;76.23
5455;BME280;2750;49.050;9.250;2023-03-25T20:21:22;98288.31;;;12.27;75.95
5455;BME280;2750;49.050;9.250;2023-03-25T20:26:24;98300.03;;;12.20;76.31
5455;BME280;2750;49.050;9.250;2023-03-25T20:31:27;98315.09;;;12.29;76.17
5455;BME280;2750;49.050;9.250;2023-03-25T20:36:29;98322.50;;;12.49;75.70
5455;BME280;2750;49.050;9.250;2023-03-25T20:41:31;98328.09;;;12.15;76.13
5455;BME280;2750;49.050;9.250;2023-03-25T20:46:34;98356.84;;;11.97;76.63
5455;BME280;2750;49.050;9.250;2023-03-25T20:51:36;98330.97;;;10.75;83.23
5455;BME280;2750;49.050;9.250;2023-03-25T20:56:38;98316.72;;;10.51;85.52
5455;BME280;2750;49.050;9.250;2023-03-25T21:01:41;98297.22;;;10.44;84.71
5455;BME280;2750;49.050;9.250;2023-03-25T21:06:43;98315.47;;;10.42;86.09
5455;BME280;2750;49.050;9.250;2023-03-25T21:11:44;98325.59;;;10.78;84.91
5455;BME280;2750;49.050;9.250;2023-03-25T21:16:49;98330.09;;;10.59;83.87
5455;BME280;2750;49.050;9.250;2023-03-25T21:21:50;98334.47;;;10.90;84.37
5455;BME280;2750;49.050;9.250;2023-03-25T21:26:53;98329.41;;;11.34;83.65
5455;BME280;2750;49.050;9.250;2023-03-25T21:31:56;98325.38;;;11.28;83.45
5455;BME280;2750;49.050;9.250;2023-03-25T21:36:58;98313.66;;;11.81;81.91
5455;BME280;2750;49.050;9.250;2023-03-25T21:42:00;98310.34;;;12.07;79.52
5455;BME280;2750;49.050;9.250;2023-03-25T21:47:03;98318.78;;;11.96;79.74
5455;BME280;2750;49.050;9.250;2023-03-25T21:52:07;98331.25;;;12.34;78.55
5455;BME280;2750;49.050;9.250;2023-03-25T21:57:12;98340.47;;;12.94;76.72
5455;BME280;2750;49.050;9.250;2023-03-25T22:02:15;98353.44;;;12.11;79.83
5455;BME280;2750;49.050;9.250;2023-03-25T22:07:16;98352.59;;;10.43;86.73
5455;BME280;2750;49.050;9.250;2023-03-25T22:12:18;98367.06;;;9.97;90.51
5455;BME280;2750;49.050;9.250;2023-03-25T22:17:21;98372.81;;;9.69;92.97
5455;BME280;2750;49.050;9.250;2023-03-25T22:22:22;98370.63;;;9.62;94.29
5455;BME280;2750;49.050;9.250;2023-03-25T22:27:24;98368.03;;;9.26;95.66
5455;BME280;2750;49.050;9.250;2023-03-25T22:32:27;98368.53;;;9.51;95.17
5455;BME280;2750;49.050;9.250;2023-03-25T22:37:28;98345.75;;;9.75;94.98
5455;BME280;2750;49.050;9.250;2023-03-25T22:42:30;98331.72;;;9.96;94.02
5455;BME280;2750;49.050;9.250;2023-03-25T22:47:33;98331.47;;;10.00;92.97
5455;BME280;2750;49.050;9.250;2023-03-25T22:52:35;98316.22;;;10.12;91.43
5455;BME280;2750;49.050;9.250;2023-03-25T22:57:36;98326.97;;;10.21;90.71
5455;BME280;2750;49.050;9.250;2023-03-25T23:02:40;98322.22;;;10.29;90.52
5455;BME280;2750;49.050;9.250;2023-03-25T23:07:42;98311.91;;;10.28;90.87
5455;BME280;2750;49.050;9.250;2023-03-25T23:12:43;98298.03;;;10.29;90.66
5455;BME280;2750;49.050;9.250;2023-03-25T23:17:46;98315.09;;;10.33;90.49
5455;BME280;2750;49.050;9.250;2023-03-25T23:22:48;98308.03;;;10.52;89.96
5455;BME280;2750;49.050;9.250;2023-03-25T23:27:49;98314.97;;;10.98;87.90
5455;BME280;2750;49.050;9.250;2023-03-25T23:32:52;98318.94;;;11.04;87.84
5455;BME280;2750;49.050;9.250;2023-03-25T23:37:54;98317.31;;;11.33;86.73
5455;BME280;2750;49.050;9.250;2023-03-25T23:42:56;98320.44;;;11.24;86.93
5455;BME280;2750;49.050;9.250;2023-03-25T23:47:59;98322.41;;;10.73;88.87
5455;BME280;2750;49.050;9.250;2023-03-25T23:53:00;98317.50;;;11.30;86.84
5455;BME280;2750;49.050;9.250;2023-03-25T23:58:02;98343.59;;;11.42;86.17
